This is the latest recevied weather packets stored in our database for station/object KB1JLI. If no packets are shown the sender has not sent any weather packets the latest 10 day(s).
| Time | Temp. | Humidity | Pressure | Rain* | Wind** | Luminosity | Snow |
|---|---|---|---|---|---|---|---|
| 1777870735 | 2.78° C | 86% | 1010.3 hPa | 0 mm | - | 0 W/m² | - |
| 1777870430 | 2.78° C | 86% | 1010.3 hPa | 0 mm | - | 0 W/m² | - |
| 1777870127 | 2.78° C | 86% | 1010.3 hPa | 0 mm | - | 0 W/m² | - |
| 1777869825 | 2.78° C | 87% | 1010.3 hPa | 0 mm | - | 0 W/m² | - |
| 1777869522 | 2.78° C | 86% | 1010.5 hPa | 0 mm | - | 0 W/m² | - |
| 1777869219 | 2.78° C | 87% | 1010.3 hPa | 0 mm | - | 0 W/m² | - |
| 1777868916 | 2.78° C | 88% | 1010.4 hPa | 0 mm | - | 0 W/m² | - |
| 1777868612 | 2.78° C | 88% | 1010.3 hPa | 0 mm | - | 0 W/m² | - |
| 1777868309 | 2.78° C | 88% | 1010.2 hPa | 0 mm | - | 0 W/m² | - |
| 1777868004 | 2.78° C | 87% | 1010.1 hPa | 0 mm | - | 0 W/m² | - |
| 1777867695 | 2.78° C | 87% | 1010 hPa | 0 mm | - | 0 W/m² | - |
| 1777867089 | 2.78° C | 87% | 1010.3 hPa | 0 mm | - | 0 W/m² | - |
| 1777866786 | 2.78° C | 87% | 1010.2 hPa | 0 mm | - | 0 W/m² | - |
| 1777865576 | 2.78° C | 85% | 1010 hPa | 0 mm | - | 0 W/m² | - |
| 1777864059 | 3.33° C | 82% | 1010 hPa | 0 mm | - | 0 W/m² | - |
| 1777863757 | 3.33° C | 81% | 1009.8 hPa | 0 mm | - | 0 W/m² | - |
| 1777863453 | 3.33° C | 81% | 1010 hPa | 0 mm | - | 0 W/m² | - |
| 1777863150 | 3.33° C | 81% | 1010 hPa | 0 mm | - | 0 W/m² | - |
| 1777844059 | 11.67° C | 38% | 1006.4 hPa | 0 mm | - | 84 W/m² | - |
| 1777843755 | 11.67° C | 40% | 1006.4 hPa | 0 mm | - | 113 W/m² | - |
| 1777842846 | 11.67° C | 39% | 1006.2 hPa | 0 mm | - | 69 W/m² | - |
| 1777840419 | 11.67° C | 41% | 1005.7 hPa | 0 mm | - | 152 W/m² | - |
| 1777840116 | 11.67° C | 40% | 1005.7 hPa | 0 mm | - | 101 W/m² | - |
| 1777839814 | 11.67° C | 41% | 1005.8 hPa | 0 mm | - | 82 W/m² | - |
| 1777837085 | 11.67° C | 44% | 1005.8 hPa | 0 mm | - | 248 W/m² | - |
* Rain latest hour (hover to see other rain measurements)
** Current wind speed in m/s (hover to see current wind gust speed)